sensor_id;sensor_type;location;lat;lon;timestamp;P1;durP1;ratioP1;P2;durP2;ratioP2
35667;SDS011;22158;59.280;17.806;2023-05-24T00:00:29;6.70;;;3.97;;
35667;SDS011;22158;59.280;17.806;2023-05-24T00:02:54;5.60;;;4.07;;
35667;SDS011;22158;59.280;17.806;2023-05-24T00:05:21;7.80;;;5.05;;
35667;SDS011;22158;59.280;17.806;2023-05-24T00:07:47;6.28;;;4.20;;
35667;SDS011;22158;59.280;17.806;2023-05-24T00:10:13;10.80;;;5.00;;
35667;SDS011;22158;59.280;17.806;2023-05-24T00:12:39;8.68;;;4.20;;
35667;SDS011;22158;59.280;17.806;2023-05-24T00:15:05;8.02;;;4.32;;
35667;SDS011;22158;59.280;17.806;2023-05-24T00:17:31;9.15;;;5.03;;
35667;SDS011;22158;59.280;17.806;2023-05-24T00:19:58;6.85;;;4.80;;
35667;SDS011;22158;59.280;17.806;2023-05-24T00:22:24;6.45;;;4.60;;
35667;SDS011;22158;59.280;17.806;2023-05-24T00:24:50;6.55;;;3.95;;
35667;SDS011;22158;59.280;17.806;2023-05-24T00:27:15;6.63;;;5.00;;
35667;SDS011;22158;59.280;17.806;2023-05-24T00:29:41;21.55;;;6.60;;
35667;SDS011;22158;59.280;17.806;2023-05-24T00:32:07;7.32;;;4.65;;
35667;SDS011;22158;59.280;17.806;2023-05-24T00:34:33;7.05;;;4.70;;
35667;SDS011;22158;59.280;17.806;2023-05-24T00:36:58;8.85;;;4.63;;
35667;SDS011;22158;59.280;17.806;2023-05-24T00:39:24;11.48;;;5.20;;
35667;SDS011;22158;59.280;17.806;2023-05-24T00:41:50;10.00;;;5.07;;
35667;SDS011;22158;59.280;17.806;2023-05-24T00:44:16;10.77;;;5.22;;
35667;SDS011;22158;59.280;17.806;2023-05-24T00:46:41;11.15;;;5.47;;
35667;SDS011;22158;59.280;17.806;2023-05-24T00:49:07;9.60;;;5.57;;
35667;SDS011;22158;59.280;17.806;2023-05-24T00:51:34;7.55;;;4.45;;
35667;SDS011;22158;59.280;17.806;2023-05-24T00:54:00;6.05;;;4.78;;
35667;SDS011;22158;59.280;17.806;2023-05-24T00:56:26;6.97;;;4.95;;
35667;SDS011;22158;59.280;17.806;2023-05-24T00:58:52;7.43;;;5.00;;
35667;SDS011;22158;59.280;17.806;2023-05-24T01:01:20;8.15;;;4.38;;
35667;SDS011;22158;59.280;17.806;2023-05-24T01:03:49;6.80;;;4.93;;
35667;SDS011;22158;59.280;17.806;2023-05-24T01:06:16;7.18;;;4.50;;
35667;SDS011;22158;59.280;17.806;2023-05-24T01:20:03;8.15;;;4.60;;
35667;SDS011;22158;59.280;17.806;2023-05-24T01:22:37;10.18;;;5.78;;
35667;SDS011;22158;59.280;17.806;2023-05-24T01:28:08;11.85;;;4.95;;
35667;SDS011;22158;59.280;17.806;2023-05-24T01:30:36;7.57;;;4.88;;
35667;SDS011;22158;59.280;17.806;2023-05-24T01:33:06;8.55;;;5.20;;
35667;SDS011;22158;59.280;17.806;2023-05-24T01:35:32;7.00;;;6.18;;
35667;SDS011;22158;59.280;17.806;2023-05-24T01:38:04;7.63;;;5.22;;
35667;SDS011;22158;59.280;17.806;2023-05-24T01:40:33;8.60;;;4.68;;
35667;SDS011;22158;59.280;17.806;2023-05-24T01:43:03;8.27;;;4.75;;
35667;SDS011;22158;59.280;17.806;2023-05-24T01:51:04;9.35;;;5.70;;
35667;SDS011;22158;59.280;17.806;2023-05-24T01:53:32;7.03;;;4.97;;
35667;SDS011;22158;59.280;17.806;2023-05-24T01:56:00;8.43;;;4.68;;
35667;SDS011;22158;59.280;17.806;2023-05-24T01:58:28;6.75;;;4.43;;
35667;SDS011;22158;59.280;17.806;2023-05-24T02:00:55;6.93;;;4.65;;
35667;SDS011;22158;59.280;17.806;2023-05-24T02:03:21;8.07;;;4.72;;
35667;SDS011;22158;59.280;17.806;2023-05-24T02:05:47;9.32;;;5.00;;
35667;SDS011;22158;59.280;17.806;2023-05-24T02:08:13;5.50;;;4.70;;
35667;SDS011;22158;59.280;17.806;2023-05-24T02:10:39;7.47;;;5.00;;
35667;SDS011;22158;59.280;17.806;2023-05-24T02:13:05;7.20;;;5.32;;
35667;SDS011;22158;59.280;17.806;2023-05-24T02:15:31;7.95;;;5.55;;
35667;SDS011;22158;59.280;17.806;2023-05-24T02:17:59;10.35;;;5.60;;
35667;SDS011;22158;59.280;17.806;2023-05-24T02:20:25;8.60;;;5.50;;
35667;SDS011;22158;59.280;17.806;2023-05-24T02:22:54;7.65;;;5.32;;
35667;SDS011;22158;59.280;17.806;2023-05-24T02:25:23;7.75;;;4.93;;
35667;SDS011;22158;59.280;17.806;2023-05-24T02:27:49;8.82;;;5.05;;
35667;SDS011;22158;59.280;17.806;2023-05-24T02:30:16;9.20;;;6.15;;
35667;SDS011;22158;59.280;17.806;2023-05-24T02:32:41;7.53;;;4.75;;
35667;SDS011;22158;59.280;17.806;2023-05-24T02:35:07;13.23;;;5.80;;
35667;SDS011;22158;59.280;17.806;2023-05-24T02:37:32;6.00;;;5.25;;
35667;SDS011;22158;59.280;17.806;2023-05-24T02:39:58;7.82;;;5.63;;
35667;SDS011;22158;59.280;17.806;2023-05-24T02:42:24;7.97;;;5.18;;
35667;SDS011;22158;59.280;17.806;2023-05-24T02:44:49;9.52;;;5.90;;
35667;SDS011;22158;59.280;17.806;2023-05-24T02:47:16;7.32;;;4.88;;
35667;SDS011;22158;59.280;17.806;2023-05-24T02:49:42;8.52;;;5.60;;
35667;SDS011;22158;59.280;17.806;2023-05-24T02:52:08;10.73;;;6.15;;
35667;SDS011;22158;59.280;17.806;2023-05-24T02:54:33;7.10;;;5.22;;
35667;SDS011;22158;59.280;17.806;2023-05-24T02:57:00;8.05;;;5.43;;
35667;SDS011;22158;59.280;17.806;2023-05-24T02:59:26;7.40;;;5.68;;
35667;SDS011;22158;59.280;17.806;2023-05-24T03:01:52;9.05;;;5.90;;
35667;SDS011;22158;59.280;17.806;2023-05-24T03:04:18;8.10;;;5.80;;
35667;SDS011;22158;59.280;17.806;2023-05-24T03:06:43;9.40;;;5.65;;
35667;SDS011;22158;59.280;17.806;2023-05-24T03:09:09;11.95;;;5.80;;
35667;SDS011;22158;59.280;17.806;2023-05-24T03:11:35;13.45;;;5.95;;
35667;SDS011;22158;59.280;17.806;2023-05-24T03:14:01;9.48;;;5.43;;
35667;SDS011;22158;59.280;17.806;2023-05-24T03:16:26;7.68;;;5.22;;
35667;SDS011;22158;59.280;17.806;2023-05-24T03:18:52;8.75;;;5.60;;
35667;SDS011;22158;59.280;17.806;2023-05-24T03:21:19;8.70;;;5.50;;
35667;SDS011;22158;59.280;17.806;2023-05-24T03:23:45;10.32;;;5.70;;
35667;SDS011;22158;59.280;17.806;2023-05-24T03:26:11;9.55;;;6.15;;
35667;SDS011;22158;59.280;17.806;2023-05-24T03:28:39;11.82;;;6.20;;
35667;SDS011;22158;59.280;17.806;2023-05-24T03:31:05;9.50;;;5.45;;
35667;SDS011;22158;59.280;17.806;2023-05-24T03:33:31;8.57;;;5.63;;
35667;SDS011;22158;59.280;17.806;2023-05-24T03:35:57;11.10;;;6.50;;
35667;SDS011;22158;59.280;17.806;2023-05-24T03:38:23;8.05;;;6.45;;
35667;SDS011;22158;59.280;17.806;2023-05-24T03:40:48;8.43;;;5.45;;
35667;SDS011;22158;59.280;17.806;2023-05-24T03:43:14;8.80;;;7.03;;
35667;SDS011;22158;59.280;17.806;2023-05-24T03:45:41;11.88;;;6.22;;
35667;SDS011;22158;59.280;17.806;2023-05-24T03:48:06;8.07;;;5.80;;
35667;SDS011;22158;59.280;17.806;2023-05-24T03:50:32;7.85;;;6.07;;
35667;SDS011;22158;59.280;17.806;2023-05-24T03:52:58;9.13;;;6.45;;
35667;SDS011;22158;59.280;17.806;2023-05-24T03:55:24;10.65;;;6.10;;
35667;SDS011;22158;59.280;17.806;2023-05-24T03:57:49;9.68;;;6.80;;
35667;SDS011;22158;59.280;17.806;2023-05-24T04:00:15;9.23;;;6.07;;
35667;SDS011;22158;59.280;17.806;2023-05-24T04:02:40;8.75;;;5.68;;
35667;SDS011;22158;59.280;17.806;2023-05-24T04:05:06;10.38;;;5.50;;
35667;SDS011;22158;59.280;17.806;2023-05-24T04:07:36;12.07;;;7.53;;
35667;SDS011;22158;59.280;17.806;2023-05-24T04:10:05;12.40;;;7.20;;
35667;SDS011;22158;59.280;17.806;2023-05-24T04:12:32;9.88;;;6.50;;
35667;SDS011;22158;59.280;17.806;2023-05-24T04:14:58;18.15;;;6.82;;
35667;SDS011;22158;59.280;17.806;2023-05-24T04:17:25;11.82;;;6.72;;
35667;SDS011;22158;59.280;17.806;2023-05-24T04:19:56;16.67;;;7.97;;
35667;SDS011;22158;59.280;17.806;2023-05-24T04:22:22;8.57;;;6.80;;
35667;SDS011;22158;59.280;17.806;2023-05-24T04:24:47;10.85;;;6.75;;
35667;SDS011;22158;59.280;17.806;2023-05-24T04:27:13;12.48;;;6.68;;
35667;SDS011;22158;59.280;17.806;2023-05-24T04:29:39;13.90;;;7.10;;
35667;SDS011;22158;59.280;17.806;2023-05-24T04:32:06;11.90;;;6.07;;
35667;SDS011;22158;59.280;17.806;2023-05-24T04:34:34;12.55;;;6.70;;
35667;SDS011;22158;59.280;17.806;2023-05-24T04:36:59;11.60;;;5.15;;
35667;SDS011;22158;59.280;17.806;2023-05-24T04:39:26;8.48;;;5.63;;
35667;SDS011;22158;59.280;17.806;2023-05-24T04:41:53;12.27;;;6.05;;
35667;SDS011;22158;59.280;17.806;2023-05-24T04:44:20;7.15;;;5.72;;
35667;SDS011;22158;59.280;17.806;2023-05-24T04:46:45;8.23;;;5.85;;
35667;SDS011;22158;59.280;17.806;2023-05-24T04:49:11;10.73;;;6.03;;
35667;SDS011;22158;59.280;17.806;2023-05-24T04:51:37;9.55;;;5.82;;
35667;SDS011;22158;59.280;17.806;2023-05-24T04:54:04;11.48;;;6.38;;
35667;SDS011;22158;59.280;17.806;2023-05-24T04:56:33;12.38;;;6.95;;
35667;SDS011;22158;59.280;17.806;2023-05-24T04:58:59;10.32;;;6.72;;
35667;SDS011;22158;59.280;17.806;2023-05-24T05:01:25;12.38;;;6.40;;
35667;SDS011;22158;59.280;17.806;2023-05-24T05:03:51;12.63;;;6.28;;
35667;SDS011;22158;59.280;17.806;2023-05-24T05:06:17;9.35;;;4.07;;
35667;SDS011;22158;59.280;17.806;2023-05-24T05:08:42;7.20;;;5.25;;
35667;SDS011;22158;59.280;17.806;2023-05-24T05:11:08;6.15;;;4.38;;
35667;SDS011;22158;59.280;17.806;2023-05-24T05:13:33;7.57;;;5.28;;
35667;SDS011;22158;59.280;17.806;2023-05-24T05:15:59;8.15;;;5.22;;
35667;SDS011;22158;59.280;17.806;2023-05-24T05:18:25;10.32;;;5.45;;
35667;SDS011;22158;59.280;17.806;2023-05-24T05:20:51;9.93;;;5.20;;
35667;SDS011;22158;59.280;17.806;2023-05-24T05:23:17;8.88;;;4.72;;
35667;SDS011;22158;59.280;17.806;2023-05-24T05:25:42;6.82;;;4.72;;
35667;SDS011;22158;59.280;17.806;2023-05-24T05:28:08;9.45;;;4.90;;
35667;SDS011;22158;59.280;17.806;2023-05-24T05:30:34;7.90;;;4.80;;
35667;SDS011;22158;59.280;17.806;2023-05-24T05:32:59;14.27;;;5.80;;
35667;SDS011;22158;59.280;17.806;2023-05-24T05:35:25;6.15;;;4.00;;
35667;SDS011;22158;59.280;17.806;2023-05-24T05:37:50;7.93;;;4.75;;
35667;SDS011;22158;59.280;17.806;2023-05-24T05:40:16;10.48;;;5.43;;
35667;SDS011;22158;59.280;17.806;2023-05-24T05:42:42;8.63;;;4.20;;
35667;SDS011;22158;59.280;17.806;2023-05-24T05:45:08;12.38;;;4.50;;
35667;SDS011;22158;59.280;17.806;2023-05-24T05:47:33;6.05;;;4.30;;
35667;SDS011;22158;59.280;17.806;2023-05-24T05:49:59;7.57;;;4.47;;
35667;SDS011;22158;59.280;17.806;2023-05-24T05:52:25;7.60;;;4.07;;
35667;SDS011;22158;59.280;17.806;2023-05-24T05:54:50;9.05;;;4.65;;
35667;SDS011;22158;59.280;17.806;2023-05-24T05:57:16;9.45;;;4.25;;
35667;SDS011;22158;59.280;17.806;2023-05-24T05:59:47;8.40;;;4.38;;
35667;SDS011;22158;59.280;17.806;2023-05-24T06:02:13;11.73;;;4.28;;
35667;SDS011;22158;59.280;17.806;2023-05-24T06:04:39;7.80;;;4.05;;
35667;SDS011;22158;59.280;17.806;2023-05-24T06:07:04;8.40;;;4.55;;
35667;SDS011;22158;59.280;17.806;2023-05-24T06:09:30;10.90;;;4.07;;
35667;SDS011;22158;59.280;17.806;2023-05-24T06:11:56;6.75;;;3.58;;
35667;SDS011;22158;59.280;17.806;2023-05-24T06:14:21;10.25;;;4.63;;
35667;SDS011;22158;59.280;17.806;2023-05-24T06:16:49;7.18;;;4.10;;
35667;SDS011;22158;59.280;17.806;2023-05-24T06:19:16;12.68;;;4.63;;
35667;SDS011;22158;59.280;17.806;2023-05-24T06:21:46;4.78;;;3.33;;
35667;SDS011;22158;59.280;17.806;2023-05-24T06:24:13;6.70;;;3.58;;
35667;SDS011;22158;59.280;17.806;2023-05-24T06:26:44;9.63;;;4.00;;
35667;SDS011;22158;59.280;17.806;2023-05-24T06:29:10;11.77;;;3.88;;
35667;SDS011;22158;59.280;17.806;2023-05-24T06:31:36;5.70;;;3.73;;
35667;SDS011;22158;59.280;17.806;2023-05-24T06:34:01;9.38;;;3.70;;
35667;SDS011;22158;59.280;17.806;2023-05-24T06:36:27;6.35;;;3.70;;
35667;SDS011;22158;59.280;17.806;2023-05-24T06:38:53;8.43;;;3.75;;
35667;SDS011;22158;59.280;17.806;2023-05-24T06:41:18;7.65;;;3.88;;
35667;SDS011;22158;59.280;17.806;2023-05-24T06:43:44;7.22;;;3.20;;
35667;SDS011;22158;59.280;17.806;2023-05-24T06:46:10;7.53;;;3.92;;
35667;SDS011;22158;59.280;17.806;2023-05-24T06:48:36;8.48;;;4.20;;
35667;SDS011;22158;59.280;17.806;2023-05-24T06:51:01;8.65;;;3.53;;
35667;SDS011;22158;59.280;17.806;2023-05-24T06:53:28;6.95;;;3.10;;
35667;SDS011;22158;59.280;17.806;2023-05-24T06:55:53;10.73;;;3.72;;
35667;SDS011;22158;59.280;17.806;2023-05-24T06:58:19;5.13;;;3.20;;
35667;SDS011;22158;59.280;17.806;2023-05-24T07:00:45;5.25;;;2.85;;
35667;SDS011;22158;59.280;17.806;2023-05-24T07:03:11;7.40;;;3.38;;
35667;SDS011;22158;59.280;17.806;2023-05-24T07:05:37;5.88;;;3.22;;
35667;SDS011;22158;59.280;17.806;2023-05-24T07:08:03;7.03;;;3.53;;
35667;SDS011;22158;59.280;17.806;2023-05-24T07:10:28;8.82;;;3.25;;
35667;SDS011;22158;59.280;17.806;2023-05-24T07:12:54;6.50;;;2.95;;
35667;SDS011;22158;59.280;17.806;2023-05-24T07:15:20;4.25;;;2.65;;
35667;SDS011;22158;59.280;17.806;2023-05-24T07:17:45;4.15;;;3.00;;
35667;SDS011;22158;59.280;17.806;2023-05-24T07:20:12;6.47;;;3.70;;
35667;SDS011;22158;59.280;17.806;2023-05-24T07:22:39;7.13;;;3.65;;
35667;SDS011;22158;59.280;17.806;2023-05-24T07:25:05;4.00;;;2.85;;
35667;SDS011;22158;59.280;17.806;2023-05-24T07:27:31;6.18;;;3.03;;
35667;SDS011;22158;59.280;17.806;2023-05-24T07:29:56;7.35;;;3.53;;
35667;SDS011;22158;59.280;17.806;2023-05-24T07:32:22;5.85;;;2.85;;
35667;SDS011;22158;59.280;17.806;2023-05-24T07:34:48;7.30;;;3.72;;
35667;SDS011;22158;59.280;17.806;2023-05-24T07:37:14;7.35;;;3.05;;
35667;SDS011;22158;59.280;17.806;2023-05-24T07:39:41;4.50;;;3.08;;
35667;SDS011;22158;59.280;17.806;2023-05-24T07:42:07;4.40;;;2.95;;
35667;SDS011;22158;59.280;17.806;2023-05-24T07:44:33;6.70;;;3.53;;
35667;SDS011;22158;59.280;17.806;2023-05-24T07:46:58;6.07;;;3.55;;
35667;SDS011;22158;59.280;17.806;2023-05-24T07:49:26;5.35;;;2.83;;
35667;SDS011;22158;59.280;17.806;2023-05-24T07:51:52;5.32;;;2.83;;
35667;SDS011;22158;59.280;17.806;2023-05-24T07:54:20;4.22;;;2.60;;
35667;SDS011;22158;59.280;17.806;2023-05-24T07:56:47;12.13;;;3.83;;
35667;SDS011;22158;59.280;17.806;2023-05-24T07:59:13;5.97;;;2.88;;
35667;SDS011;22158;59.280;17.806;2023-05-24T08:01:39;4.75;;;2.90;;
35667;SDS011;22158;59.280;17.806;2023-05-24T08:04:05;4.95;;;3.33;;
35667;SDS011;22158;59.280;17.806;2023-05-24T08:06:33;7.50;;;3.03;;
35667;SDS011;22158;59.280;17.806;2023-05-24T08:09:02;9.25;;;3.33;;
35667;SDS011;22158;59.280;17.806;2023-05-24T08:11:28;8.25;;;2.88;;
35667;SDS011;22158;59.280;17.806;2023-05-24T08:13:54;3.28;;;2.65;;
35667;SDS011;22158;59.280;17.806;2023-05-24T08:16:20;6.65;;;3.63;;
35667;SDS011;22158;59.280;17.806;2023-05-24T08:18:46;4.82;;;2.90;;
35667;SDS011;22158;59.280;17.806;2023-05-24T08:21:11;5.53;;;2.70;;
35667;SDS011;22158;59.280;17.806;2023-05-24T08:23:37;6.38;;;3.38;;
35667;SDS011;22158;59.280;17.806;2023-05-24T08:26:02;13.70;;;4.15;;
35667;SDS011;22158;59.280;17.806;2023-05-24T08:28:28;4.55;;;2.90;;
35667;SDS011;22158;59.280;17.806;2023-05-24T08:30:54;6.93;;;2.78;;
35667;SDS011;22158;59.280;17.806;2023-05-24T08:33:20;3.15;;;2.55;;
35667;SDS011;22158;59.280;17.806;2023-05-24T08:35:47;4.40;;;2.80;;
35667;SDS011;22158;59.280;17.806;2023-05-24T08:38:16;5.22;;;3.35;;
35667;SDS011;22158;59.280;17.806;2023-05-24T08:40:42;5.45;;;3.13;;
35667;SDS011;22158;59.280;17.806;2023-05-24T08:43:08;5.60;;;3.00;;
35667;SDS011;22158;59.280;17.806;2023-05-24T08:45:36;4.88;;;3.22;;
35667;SDS011;22158;59.280;17.806;2023-05-24T08:48:06;5.70;;;3.63;;
35667;SDS011;22158;59.280;17.806;2023-05-24T08:50:33;5.93;;;2.88;;
35667;SDS011;22158;59.280;17.806;2023-05-24T08:52:59;8.95;;;3.38;;
35667;SDS011;22158;59.280;17.806;2023-05-24T08:55:28;4.97;;;3.00;;
35667;SDS011;22158;59.280;17.806;2023-05-24T08:57:55;6.82;;;2.83;;
35667;SDS011;22158;59.280;17.806;2023-05-24T09:00:21;7.70;;;3.13;;
35667;SDS011;22158;59.280;17.806;2023-05-24T09:02:47;7.15;;;3.20;;
35667;SDS011;22158;59.280;17.806;2023-05-24T09:05:14;4.32;;;2.80;;
35667;SDS011;22158;59.280;17.806;2023-05-24T09:07:45;9.68;;;3.30;;
35667;SDS011;22158;59.280;17.806;2023-05-24T09:10:13;5.50;;;2.53;;
35667;SDS011;22158;59.280;17.806;2023-05-24T09:12:42;4.95;;;3.05;;
35667;SDS011;22158;59.280;17.806;2023-05-24T09:15:11;13.10;;;3.13;;
35667;SDS011;22158;59.280;17.806;2023-05-24T09:17:37;8.50;;;3.30;;
35667;SDS011;22158;59.280;17.806;2023-05-24T09:20:05;11.05;;;3.30;;
35667;SDS011;22158;59.280;17.806;2023-05-24T09:22:34;11.95;;;3.83;;
35667;SDS011;22158;59.280;17.806;2023-05-24T09:25:03;8.25;;;3.40;;
35667;SDS011;22158;59.280;17.806;2023-05-24T09:27:33;8.05;;;3.10;;
35667;SDS011;22158;59.280;17.806;2023-05-24T09:29:59;13.65;;;3.90;;
35667;SDS011;22158;59.280;17.806;2023-05-24T09:32:28;9.68;;;3.65;;
35667;SDS011;22158;59.280;17.806;2023-05-24T09:34:56;8.75;;;3.72;;
35667;SDS011;22158;59.280;17.806;2023-05-24T09:37:23;5.82;;;3.40;;
35667;SDS011;22158;59.280;17.806;2023-05-24T09:39:51;8.80;;;3.30;;
35667;SDS011;22158;59.280;17.806;2023-05-24T09:42:18;5.40;;;3.40;;
35667;SDS011;22158;59.280;17.806;2023-05-24T09:44:57;6.07;;;3.60;;
35667;SDS011;22158;59.280;17.806;2023-05-24T09:47:31;6.55;;;2.83;;
35667;SDS011;22158;59.280;17.806;2023-05-24T09:49:58;7.68;;;3.33;;
35667;SDS011;22158;59.280;17.806;2023-05-24T09:52:24;6.82;;;2.80;;
35667;SDS011;22158;59.280;17.806;2023-05-24T09:54:50;11.48;;;3.67;;
35667;SDS011;22158;59.280;17.806;2023-05-24T09:57:16;6.70;;;3.28;;
35667;SDS011;22158;59.280;17.806;2023-05-24T09:59:42;4.20;;;3.00;;
35667;SDS011;22158;59.280;17.806;2023-05-24T10:02:08;4.30;;;3.15;;
35667;SDS011;22158;59.280;17.806;2023-05-24T10:04:36;5.18;;;2.95;;
35667;SDS011;22158;59.280;17.806;2023-05-24T10:07:02;7.15;;;3.45;;
35667;SDS011;22158;59.280;17.806;2023-05-24T10:09:29;6.00;;;2.95;;
35667;SDS011;22158;59.280;17.806;2023-05-24T10:12:02;5.68;;;2.90;;
35667;SDS011;22158;59.280;17.806;2023-05-24T10:14:32;6.05;;;3.38;;
35667;SDS011;22158;59.280;17.806;2023-05-24T10:17:02;7.55;;;3.55;;
35667;SDS011;22158;59.280;17.806;2023-05-24T10:19:29;9.63;;;4.47;;
35667;SDS011;22158;59.280;17.806;2023-05-24T10:21:59;7.30;;;3.17;;
35667;SDS011;22158;59.280;17.806;2023-05-24T10:24:31;3.92;;;2.70;;
35667;SDS011;22158;59.280;17.806;2023-05-24T10:26:59;5.07;;;3.15;;
35667;SDS011;22158;59.280;17.806;2023-05-24T10:32:12;12.38;;;2.88;;
35667;SDS011;22158;59.280;17.806;2023-05-24T10:34:39;4.93;;;2.35;;
35667;SDS011;22158;59.280;17.806;2023-05-24T10:37:06;7.18;;;3.00;;
35667;SDS011;22158;59.280;17.806;2023-05-24T10:39:33;5.93;;;2.65;;
35667;SDS011;22158;59.280;17.806;2023-05-24T10:42:05;8.48;;;2.47;;
35667;SDS011;22158;59.280;17.806;2023-05-24T10:44:31;6.75;;;3.08;;
35667;SDS011;22158;59.280;17.806;2023-05-24T10:47:00;7.68;;;2.47;;
35667;SDS011;22158;59.280;17.806;2023-05-24T10:49:28;3.90;;;2.85;;
35667;SDS011;22158;59.280;17.806;2023-05-24T10:52:00;2.63;;;1.92;;
35667;SDS011;22158;59.280;17.806;2023-05-24T10:54:27;7.03;;;2.78;;
35667;SDS011;22158;59.280;17.806;2023-05-24T10:56:52;4.68;;;2.53;;
35667;SDS011;22158;59.280;17.806;2023-05-24T10:59:22;4.80;;;2.35;;
35667;SDS011;22158;59.280;17.806;2023-05-24T11:02:09;4.43;;;2.20;;
35667;SDS011;22158;59.280;17.806;2023-05-24T11:04:39;3.75;;;2.63;;
35667;SDS011;22158;59.280;17.806;2023-05-24T11:07:10;3.58;;;2.47;;
35667;SDS011;22158;59.280;17.806;2023-05-24T11:09:39;3.88;;;2.40;;
35667;SDS011;22158;59.280;17.806;2023-05-24T11:12:11;5.70;;;2.15;;
35667;SDS011;22158;59.280;17.806;2023-05-24T11:14:40;4.90;;;2.55;;
35667;SDS011;22158;59.280;17.806;2023-05-24T11:17:10;6.28;;;2.63;;
35667;SDS011;22158;59.280;17.806;2023-05-24T11:19:37;4.18;;;2.08;;
35667;SDS011;22158;59.280;17.806;2023-05-24T11:22:09;5.70;;;2.28;;
35667;SDS011;22158;59.280;17.806;2023-05-24T11:24:34;7.43;;;2.53;;
35667;SDS011;22158;59.280;17.806;2023-05-24T11:27:01;5.32;;;3.15;;
35667;SDS011;22158;59.280;17.806;2023-05-24T11:29:28;4.10;;;2.50;;
35667;SDS011;22158;59.280;17.806;2023-05-24T11:31:55;7.50;;;2.75;;
35667;SDS011;22158;59.280;17.806;2023-05-24T11:34:32;5.03;;;2.65;;
35667;SDS011;22158;59.280;17.806;2023-05-24T11:36:58;3.47;;;2.30;;
35667;SDS011;22158;59.280;17.806;2023-05-24T11:39:30;4.25;;;2.55;;
35667;SDS011;22158;59.280;17.806;2023-05-24T11:41:56;6.43;;;2.35;;
35667;SDS011;22158;59.280;17.806;2023-05-24T11:44:22;3.63;;;2.20;;
35667;SDS011;22158;59.280;17.806;2023-05-24T11:46:48;8.45;;;2.70;;
35667;SDS011;22158;59.280;17.806;2023-05-24T11:49:14;3.50;;;2.13;;
35667;SDS011;22158;59.280;17.806;2023-05-24T11:51:41;5.28;;;2.50;;
35667;SDS011;22158;59.280;17.806;2023-05-24T11:54:07;3.13;;;2.22;;
35667;SDS011;22158;59.280;17.806;2023-05-24T11:56:33;5.38;;;2.08;;
35667;SDS011;22158;59.280;17.806;2023-05-24T12:01:39;2.70;;;2.03;;
35667;SDS011;22158;59.280;17.806;2023-05-24T12:04:05;7.63;;;3.25;;
35667;SDS011;22158;59.280;17.806;2023-05-24T12:06:35;5.25;;;2.35;;
35667;SDS011;22158;59.280;17.806;2023-05-24T12:09:05;3.60;;;2.90;;
35667;SDS011;22158;59.280;17.806;2023-05-24T12:11:38;4.77;;;2.30;;
35667;SDS011;22158;59.280;17.806;2023-05-24T12:14:05;3.35;;;2.75;;
35667;SDS011;22158;59.280;17.806;2023-05-24T12:16:31;4.53;;;2.67;;
35667;SDS011;22158;59.280;17.806;2023-05-24T12:18:57;4.13;;;2.50;;
35667;SDS011;22158;59.280;17.806;2023-05-24T12:21:23;5.60;;;2.60;;
35667;SDS011;22158;59.280;17.806;2023-05-24T12:23:49;5.20;;;2.70;;
35667;SDS011;22158;59.280;17.806;2023-05-24T12:26:16;4.78;;;3.05;;
35667;SDS011;22158;59.280;17.806;2023-05-24T12:28:46;6.95;;;2.95;;
35667;SDS011;22158;59.280;17.806;2023-05-24T12:31:17;5.65;;;3.65;;
35667;SDS011;22158;59.280;17.806;2023-05-24T12:33:43;5.82;;;3.40;;
35667;SDS011;22158;59.280;17.806;2023-05-24T12:36:08;4.43;;;2.70;;
35667;SDS011;22158;59.280;17.806;2023-05-24T12:38:34;5.93;;;3.35;;
35667;SDS011;22158;59.280;17.806;2023-05-24T12:41:00;5.30;;;2.72;;
35667;SDS011;22158;59.280;17.806;2023-05-24T12:43:25;3.47;;;2.70;;
35667;SDS011;22158;59.280;17.806;2023-05-24T12:45:51;8.32;;;3.10;;
35667;SDS011;22158;59.280;17.806;2023-05-24T12:48:17;6.43;;;2.85;;
35667;SDS011;22158;59.280;17.806;2023-05-24T12:50:42;6.97;;;2.70;;
35667;SDS011;22158;59.280;17.806;2023-05-24T12:53:08;3.95;;;2.80;;
35667;SDS011;22158;59.280;17.806;2023-05-24T12:55:34;4.25;;;2.92;;
35667;SDS011;22158;59.280;17.806;2023-05-24T12:58:00;5.03;;;2.65;;
35667;SDS011;22158;59.280;17.806;2023-05-24T13:00:27;7.18;;;3.42;;
35667;SDS011;22158;59.280;17.806;2023-05-24T13:02:54;4.57;;;2.65;;
35667;SDS011;22158;59.280;17.806;2023-05-24T13:05:22;5.95;;;3.05;;
35667;SDS011;22158;59.280;17.806;2023-05-24T13:07:52;4.57;;;2.90;;
35667;SDS011;22158;59.280;17.806;2023-05-24T13:10:20;7.35;;;3.10;;
35667;SDS011;22158;59.280;17.806;2023-05-24T13:12:46;6.00;;;3.30;;
35667;SDS011;22158;59.280;17.806;2023-05-24T13:15:12;6.30;;;3.15;;
35667;SDS011;22158;59.280;17.806;2023-05-24T13:17:39;6.47;;;3.15;;
35667;SDS011;22158;59.280;17.806;2023-05-24T13:20:06;7.43;;;3.22;;
35667;SDS011;22158;59.280;17.806;2023-05-24T13:22:35;5.80;;;3.15;;
35667;SDS011;22158;59.280;17.806;2023-05-24T13:25:06;5.60;;;3.35;;
35667;SDS011;22158;59.280;17.806;2023-05-24T13:29:59;4.38;;;2.88;;
35667;SDS011;22158;59.280;17.806;2023-05-24T13:32:24;8.63;;;3.78;;
35667;SDS011;22158;59.280;17.806;2023-05-24T13:34:50;4.85;;;2.92;;
35667;SDS011;22158;59.280;17.806;2023-05-24T13:37:16;5.45;;;2.80;;
35667;SDS011;22158;59.280;17.806;2023-05-24T13:39:42;5.57;;;3.28;;
35667;SDS011;22158;59.280;17.806;2023-05-24T13:42:07;3.70;;;2.88;;
35667;SDS011;22158;59.280;17.806;2023-05-24T13:44:33;5.95;;;2.97;;
35667;SDS011;22158;59.280;17.806;2023-05-24T13:46:59;4.88;;;2.92;;
35667;SDS011;22158;59.280;17.806;2023-05-24T13:49:26;6.88;;;3.08;;
35667;SDS011;22158;59.280;17.806;2023-05-24T13:51:52;7.20;;;3.17;;
35667;SDS011;22158;59.280;17.806;2023-05-24T13:54:19;4.32;;;3.17;;
35667;SDS011;22158;59.280;17.806;2023-05-24T13:56:45;8.27;;;3.30;;
35667;SDS011;22158;59.280;17.806;2023-05-24T13:59:13;9.00;;;3.00;;
35667;SDS011;22158;59.280;17.806;2023-05-24T14:01:39;5.13;;;3.53;;
35667;SDS011;22158;59.280;17.806;2023-05-24T14:04:05;7.18;;;3.30;;
35667;SDS011;22158;59.280;17.806;2023-05-24T14:06:32;4.25;;;2.85;;
35667;SDS011;22158;59.280;17.806;2023-05-24T14:08:58;6.30;;;2.97;;
35667;SDS011;22158;59.280;17.806;2023-05-24T14:11:24;8.63;;;3.58;;
35667;SDS011;22158;59.280;17.806;2023-05-24T14:13:51;8.07;;;3.38;;
35667;SDS011;22158;59.280;17.806;2023-05-24T14:16:17;6.15;;;3.10;;
35667;SDS011;22158;59.280;17.806;2023-05-24T14:18:43;3.83;;;3.15;;
35667;SDS011;22158;59.280;17.806;2023-05-24T14:21:09;5.28;;;2.90;;
35667;SDS011;22158;59.280;17.806;2023-05-24T14:23:35;5.80;;;2.95;;
35667;SDS011;22158;59.280;17.806;2023-05-24T14:26:01;6.88;;;2.85;;
35667;SDS011;22158;59.280;17.806;2023-05-24T14:28:27;5.30;;;3.00;;
35667;SDS011;22158;59.280;17.806;2023-05-24T14:30:52;6.10;;;3.00;;
35667;SDS011;22158;59.280;17.806;2023-05-24T14:33:18;5.55;;;2.70;;
35667;SDS011;22158;59.280;17.806;2023-05-24T14:35:43;4.95;;;3.00;;
35667;SDS011;22158;59.280;17.806;2023-05-24T14:38:10;6.03;;;2.40;;
35667;SDS011;22158;59.280;17.806;2023-05-24T14:40:36;5.65;;;3.00;;
35667;SDS011;22158;59.280;17.806;2023-05-24T14:43:03;4.13;;;2.90;;
35667;SDS011;22158;59.280;17.806;2023-05-24T14:45:30;8.18;;;2.97;;
35667;SDS011;22158;59.280;17.806;2023-05-24T14:47:56;6.22;;;3.58;;
35667;SDS011;22158;59.280;17.806;2023-05-24T14:50:21;4.78;;;2.55;;
35667;SDS011;22158;59.280;17.806;2023-05-24T14:52:47;5.10;;;2.45;;
35667;SDS011;22158;59.280;17.806;2023-05-24T14:55:13;4.60;;;2.42;;
35667;SDS011;22158;59.280;17.806;2023-05-24T14:57:40;4.25;;;2.65;;